Terminal Aerodrome Forecast
Issued by NWS

Home | Current Version | Previous Version | Text Only | Print | Product List | Glossary On
Versions: 1 2 3 4 5 6 7 8 9 10 11 12 13 14 15
000
FTUS42 KKEY 242347
TAFMTH
TAF
KMTH 242347Z 2500/2524 27007KT P6SM SCT024 BKN070
     FM250400 30005KT P6SM VCSH SCT018 BKN100
      TEMPO 2504/2508 5SM -SHRA BR BKN018
     FM250800 34007KT P6SM SCT018=

USA.gov is the U.S. government's official web portal to all federal, state and local government web resources and services.